Time;durP1;ratioP1;P1;durP2;ratioP2;P2;SDS_P1;SDS_P2;PMS_P1;PMS_P2;Temp;Humidity;BMP_temperature;BMP_pressure;BME280_temperature;BME280_humidity;BME280_pressure;Samples;Min_cycle;Max_cycle;Signal;HPM_P1;HPM_P2
2022/01/24 00:00:13;;;;;;;41.97;20.90;;;;;;;-142.02;100.00;61695.09;4955540;28;20047;-72
2022/01/24 00:02:41;;;;;;;72.88;34.35;;;;;;;-142.02;100.00;61695.09;4972716;28;20062;-72
2022/01/24 00:05:08;;;;;;;53.13;23.50;;;;;;;-142.02;100.00;61695.09;4955810;28;20130;-72
2022/01/24 00:07:35;;;;;;;43.08;21.10;;;;;;;-142.02;100.00;61695.09;4972388;28;20522;-71
2022/01/24 00:10:04;;;;;;;34.67;18.67;;;;;;;-142.02;100.00;61695.09;4972703;28;20051;-72
2022/01/24 00:17:36;;;;;;;56.28;27.80;;;;;;;-142.02;100.00;61695.09;4939471;28;20058;-74
2022/01/24 00:28:07;;;;;;;60.05;24.70;;;;;;;-142.02;100.00;61695.09;4957790;28;20099;-72
2022/01/24 00:30:33;;;;;;;50.67;21.63;;;;;;;-142.02;100.00;61695.09;4972388;28;20058;-72
2022/01/24 00:33:00;;;;;;;56.45;22.05;;;;;;;-142.02;100.00;61695.09;4939222;28;20066;-72
2022/01/24 00:35:26;;;;;;;51.53;23.55;;;;;;;-142.02;100.00;61695.09;4955071;28;20051;-73
2022/01/24 00:37:52;;;;;;;67.18;27.90;;;;;;;-142.02;100.00;61695.09;4971984;28;20059;-72
2022/01/24 00:40:18;;;;;;;57.70;27.27;;;;;;;-142.02;100.00;61695.09;4972036;28;20531;-71
2022/01/24 00:42:52;;;;;;;48.22;23.02;;;;;;;-142.02;100.00;61695.09;4971748;28;20098;-73
2022/01/24 00:45:30;;;;;;;56.13;23.88;;;;;;;-142.02;100.00;61695.09;4972308;28;20062;-73
2022/01/24 00:48:27;;;;;;;49.17;22.92;;;;;;;-142.02;100.00;61695.09;4971788;28;20051;-73
2022/01/24 00:53:50;;;;;;;57.30;25.30;;;;;;;-142.02;100.00;61695.09;4941007;28;20039;-73
2022/01/24 00:56:17;;;;;;;60.08;25.55;;;;;;;-142.02;100.00;61695.09;4954883;28;20046;-72
2022/01/24 00:58:42;;;;;;;58.42;25.55;;;;;;;-142.02;100.00;61695.09;4937816;28;20070;-71
2022/01/24 01:01:09;;;;;;;62.42;27.10;;;;;;;-142.02;100.00;61695.09;4972001;28;20421;-72
2022/01/24 01:03:35;;;;;;;55.30;25.23;;;;;;;-142.02;100.00;61695.09;4955264;28;20046;-71
2022/01/24 01:06:08;;;;;;;67.57;31.00;;;;;;;-142.02;100.00;61695.09;4955397;28;20066;-72
2022/01/24 01:19:36;;;;;;;54.80;25.85;;;;;;;-142.02;100.00;61695.09;4943377;28;20057;-73
2022/01/24 01:22:02;;;;;;;50.50;23.02;;;;;;;-142.02;100.00;61695.09;4971426;28;20062;-73
2022/01/24 01:24:37;;;;;;;38.53;16.90;;;;;;;-142.02;100.00;61695.09;4972843;28;20053;-74
2022/01/24 01:27:10;;;;;;;34.97;18.00;;;;;;;-142.02;100.00;61695.09;4973347;28;20125;-73
2022/01/24 01:54:51;;;;;;;41.72;21.52;;;;;;;-142.02;100.00;61695.09;4956891;28;20424;-72
2022/01/24 01:56:47;;;;;;;45.13;20.05;;;;;;;-142.02;100.00;61695.09;4941401;28;20058;-73
2022/01/24 01:59:13;;;;;;;38.45;19.77;;;;;;;-142.02;100.00;61695.09;4971343;28;20047;-71
2022/01/24 02:01:41;;;;;;;39.15;18.73;;;;;;;-142.02;100.00;61695.09;4953766;28;20133;-72
2022/01/24 02:04:09;;;;;;;40.25;18.48;;;;;;;-142.02;100.00;61695.09;4970750;28;20118;-74
2022/01/24 02:06:35;;;;;;;47.33;20.95;;;;;;;-142.02;100.00;61695.09;4971059;28;20102;-73
2022/01/24 02:09:04;;;;;;;44.17;19.33;;;;;;;-142.02;100.00;61695.09;4970557;28;20058;-73
2022/01/24 02:11:30;;;;;;;40.63;22.17;;;;;;;-142.02;100.00;61695.09;4960474;28;20057;-72
2022/01/24 02:14:01;;;;;;;54.15;22.15;;;;;;;-142.02;100.00;61695.09;4972759;28;20046;-72
2022/01/24 02:19:27;;;;;;;45.15;20.45;;;;;;;-142.02;100.00;61695.09;4945791;28;20053;-73
2022/01/24 02:24:32;;;;;;;36.05;19.40;;;;;;;-142.02;100.00;61695.09;4938753;28;20058;-72
2022/01/24 02:26:59;;;;;;;48.17;21.80;;;;;;;-142.02;100.00;61695.09;4953742;28;20054;-72
2022/01/24 02:32:11;;;;;;;41.63;21.30;;;;;;;-142.02;100.00;61695.09;4971784;28;20430;-73
2022/01/24 02:34:40;;;;;;;47.03;22.38;;;;;;;-142.02;100.00;61695.09;4972768;28;20054;-73
2022/01/24 02:37:08;;;;;;;48.72;22.17;;;;;;;-142.02;100.00;61695.09;4972360;28;20065;-72
2022/01/24 02:53:15;;;;;;;39.58;20.58;;;;;;;-142.02;100.00;61695.09;4954484;28;20074;-73
2022/01/24 02:55:41;;;;;;;59.10;26.85;;;;;;;-142.02;100.00;61695.09;4970255;28;20438;-72
2022/01/24 02:58:09;;;;;;;45.67;23.98;;;;;;;-142.02;100.00;61695.09;4970353;28;20047;-72
2022/01/24 03:00:35;;;;;;;41.45;20.45;;;;;;;-142.02;100.00;61695.09;4970925;28;20061;-72
2022/01/24 03:03:03;;;;;;;49.13;24.90;;;;;;;-142.02;100.00;61695.09;4952971;28;20117;-72
2022/01/24 03:05:30;;;;;;;53.45;23.42;;;;;;;-142.02;100.00;61695.09;4970787;28;20058;-72
2022/01/24 03:07:56;;;;;;;54.85;27.65;;;;;;;-142.02;100.00;61695.09;4969172;28;20054;-73
2022/01/24 03:10:28;;;;;;;52.85;27.80;;;;;;;-142.02;100.00;61695.09;4970431;28;20045;-72
2022/01/24 03:13:09;;;;;;;57.15;27.85;;;;;;;-142.02;100.00;61695.09;4954083;28;20051;-71
2022/01/24 03:15:37;;;;;;;58.88;28.52;;;;;;;-142.02;100.00;61695.09;4971479;28;20051;-72
2022/01/24 03:18:03;;;;;;;51.60;24.60;;;;;;;-142.02;100.00;61695.09;4969625;28;20073;-72
2022/01/24 03:20:29;;;;;;;62.65;31.85;;;;;;;-142.02;100.00;61695.09;4970753;28;20137;-72
2022/01/24 03:22:55;;;;;;;59.25;30.25;;;;;;;-142.02;100.00;61695.09;4974496;28;20462;-72
2022/01/24 03:25:21;;;;;;;64.20;32.30;;;;;;;-142.02;100.00;61695.09;4974731;28;20125;-72
2022/01/24 03:27:46;;;;;;;58.08;27.80;;;;;;;-142.02;100.00;61695.09;4956632;28;20192;-71
2022/01/24 03:30:12;;;;;;;62.50;35.47;;;;;;;-142.02;100.00;61695.09;4956910;28;20220;-71
2022/01/24 03:32:39;;;;;;;52.17;26.42;;;;;;;-142.02;100.00;61695.09;4975153;28;20582;-71
2022/01/24 03:35:07;;;;;;;62.33;29.65;;;;;;;-142.02;100.00;61695.09;4957436;28;20051;-72
2022/01/24 03:37:37;;;;;;;59.78;30.95;;;;;;;-142.02;100.00;61695.09;4957422;28;20049;-72
2022/01/24 03:40:03;;;;;;;51.13;25.63;;;;;;;-142.02;100.00;61695.09;4942187;28;20460;-71
2022/01/24 03:42:29;;;;;;;51.53;27.13;;;;;;;-142.02;100.00;61695.09;4973643;28;20062;-73
2022/01/24 03:45:02;;;;;;;47.95;26.02;;;;;;;-142.02;100.00;61695.09;4974287;28;20113;-72
2022/01/24 03:50:05;;;;;;;52.58;28.13;;;;;;;-142.02;100.00;61695.09;4956665;28;20106;-71
2022/01/24 03:52:31;;;;;;;50.22;27.30;;;;;;;-142.02;100.00;61695.09;4957447;28;20537;-72
2022/01/24 03:54:58;;;;;;;49.03;25.85;;;;;;;-142.02;100.00;61695.09;4956964;28;20491;-72
2022/01/24 03:57:26;;;;;;;51.88;28.33;;;;;;;-142.02;100.00;61695.09;4925008;28;20090;-72
2022/01/24 03:59:52;;;;;;;27.02;17.02;;;;;;;-142.02;100.00;61695.09;4974139;28;20042;-72
2022/01/24 04:02:20;;;;;;;34.70;19.60;;;;;;;-142.02;100.00;61695.09;4974144;28;20531;-73
2022/01/24 04:04:48;;;;;;;34.28;17.65;;;;;;;-142.02;100.00;61695.09;4956331;28;20578;-72
2022/01/24 04:07:14;;;;;;;32.28;17.63;;;;;;;-142.02;100.00;61695.09;4941130;28;20051;-72
2022/01/24 04:09:42;;;;;;;30.40;17.00;;;;;;;-142.02;100.00;61695.09;4956388;28;20100;-72
2022/01/24 04:12:09;;;;;;;34.38;17.02;;;;;;;-142.02;100.00;61695.09;4973959;28;20117;-72
2022/01/24 04:14:55;;;;;;;41.38;19.73;;;;;;;-142.02;100.00;61695.09;4973990;28;20618;-73
2022/01/24 04:17:24;;;;;;;51.83;23.90;;;;;;;-142.02;100.00;61695.09;4973577;28;20463;-72
2022/01/24 04:22:38;;;;;;;40.95;21.88;;;;;;;-142.02;100.00;61695.09;4973213;28;20567;-73
2022/01/24 04:25:06;;;;;;;33.97;17.25;;;;;;;-7.10;94.80;101912.84;4955773;28;20117;-73
2022/01/24 04:27:34;;;;;;;31.27;15.23;;;;;;;-7.11;94.91;101911.09;4972245;28;20196;-72
2022/01/24 04:30:00;;;;;;;29.25;14.82;;;;;;;-7.15;94.48;101914.28;4939683;28;20098;-72
2022/01/24 04:32:26;;;;;;;33.53;16.67;;;;;;;-7.21;94.82;101916.50;4971465;28;20432;-72
2022/01/24 04:34:52;;;;;;;36.47;17.95;;;;;;;-7.22;94.33;101915.63;4940129;28;20094;-72
2022/01/24 04:37:18;;;;;;;45.67;18.95;;;;;;;-7.22;94.10;101927.44;4945900;28;20059;-72
2022/01/24 04:39:44;;;;;;;22.52;13.43;;;;;;;-7.17;94.26;101928.56;4953328;28;20043;-72
2022/01/24 04:42:16;;;;;;;28.40;12.35;;;;;;;-7.17;94.26;101928.56;4952761;28;20047;-72
2022/01/24 04:44:52;;;;;;;35.70;18.67;;;;;;;-142.02;100.00;61695.09;4951850;28;20546;-72
2022/01/24 04:47:38;;;;;;;39.90;22.35;;;;;;;-142.02;100.00;61695.09;4953568;29;20531;-73
2022/01/24 04:53:11;;;;;;;41.35;22.00;;;;;;;-142.02;100.00;61695.09;4927693;29;20581;-73
2022/01/24 04:55:37;;;;;;;50.45;23.95;;;;;;;-142.02;100.00;61695.09;4936369;29;20047;-72
2022/01/24 04:58:03;;;;;;;37.83;19.38;;;;;;;-142.02;100.00;61695.09;4953033;29;20051;-72
2022/01/24 05:00:29;;;;;;;35.38;18.27;;;;;;;-142.02;100.00;61695.09;4953663;29;20423;-73
2022/01/24 05:02:56;;;;;;;10.98;7.13;;;;;;;-142.02;100.00;61695.09;4968141;28;20047;-73
2022/01/24 05:05:24;;;;;;;36.38;19.42;;;;;;;-142.02;100.00;61695.09;4953794;28;20756;-73
2022/01/24 05:07:51;;;;;;;44.67;21.92;;;;;;;-142.02;100.00;61695.09;4953107;28;20055;-73
2022/01/24 05:23:59;;;;;;;29.70;16.48;;;;;;;-7.40;93.45;101943.50;4972643;28;20104;-74
2022/01/24 05:27:23;;;;;;;37.85;18.23;;;;;;;-142.02;100.00;61695.09;4908454;28;20054;-75
2022/01/24 05:30:35;;;;;;;32.50;17.05;;;;;;;-7.43;94.05;101942.47;4970067;28;20093;-74
2022/01/24 05:33:36;;;;;;;26.27;14.68;;;;;;;-7.56;93.62;101940.94;4941085;28;20059;-74
2022/01/24 05:36:24;;;;;;;41.92;19.23;;;;;;;-7.68;93.88;101935.25;4959396;28;20059;-73
2022/01/24 05:39:58;;;;;;;55.80;23.55;;;;;;;-7.68;94.01;101940.34;4950539;28;20102;-74
2022/01/24 05:42:50;;;;;;;41.13;21.83;;;;;;;-7.68;94.25;101939.44;4958326;28;20121;-72
2022/01/24 05:45:17;;;;;;;54.97;23.50;;;;;;;-7.62;94.21;101950.78;4971986;28;20059;-71
2022/01/24 05:47:43;;;;;;;45.05;21.10;;;;;;;-7.62;93.92;101950.78;4971010;28;20046;-71
2022/01/24 05:50:10;;;;;;;41.90;19.58;;;;;;;-7.50;93.85;101946.38;4971603;28;20063;-71
2022/01/24 05:52:38;;;;;;;51.08;26.20;;;;;;;-142.02;100.00;61695.09;4967881;28;20073;-71
2022/01/24 05:55:05;;;;;;;51.63;23.40;;;;;;;-7.43;92.64;101943.31;4924702;28;20038;-71
2022/01/24 05:57:31;;;;;;;43.58;21.08;;;;;;;-7.49;93.12;101950.63;4940424;28;20047;-70
2022/01/24 05:59:57;;;;;;;49.60;22.02;;;;;;;-142.02;100.00;61695.09;4959186;28;20047;-71
2022/01/24 06:02:23;;;;;;;51.55;23.60;;;;;;;-142.02;100.00;61695.09;4960369;28;20062;-70
2022/01/24 06:04:52;;;;;;;41.28;22.23;;;;;;;-142.02;100.00;61695.09;4939305;28;20475;-71
2022/01/24 06:07:18;;;;;;;56.13;27.25;;;;;;;-142.02;100.00;61695.09;4956580;28;20046;-70
2022/01/24 06:09:44;;;;;;;40.95;19.35;;;;;;;-7.18;91.04;101954.72;4963058;28;20424;-70
2022/01/24 06:12:10;;;;;;;47.58;19.25;;;;;;;-142.02;100.00;61695.09;4961446;28;20042;-71
2022/01/24 06:14:36;;;;;;;52.83;23.88;;;;;;;-142.02;100.00;61695.09;4974315;28;20051;-70
2022/01/24 06:17:03;;;;;;;40.08;20.35;;;;;;;-142.02;100.00;61695.09;4957098;28;20043;-71
2022/01/24 06:19:29;;;;;;;49.55;22.35;;;;;;;-142.02;100.00;61695.09;4941025;28;20051;-71
2022/01/24 06:21:56;;;;;;;38.20;16.98;;;;;;;-142.02;100.00;61695.09;4941165;28;20043;-71
2022/01/24 06:24:22;;;;;;;34.08;18.05;;;;;;;-142.02;100.00;61695.09;4956486;28;20170;-70
2022/01/24 06:26:48;;;;;;;31.25;17.20;;;;;;;-142.02;100.00;61695.09;4942462;28;20047;-71
2022/01/24 06:29:14;;;;;;;42.90;19.10;;;;;;;-142.02;100.00;61695.09;4941537;28;20083;-71
2022/01/24 06:31:44;;;;;;;40.38;18.60;;;;;;;-142.02;100.00;61695.09;4973040;28;20058;-70
2022/01/24 06:34:11;;;;;;;45.55;21.58;;;;;;;-142.02;100.00;61695.09;4959140;28;20130;-71
2022/01/24 06:36:37;;;;;;;40.13;19.05;;;;;;;-142.02;100.00;61695.09;4968341;28;20530;-70
2022/01/24 06:39:05;;;;;;;52.83;22.92;;;;;;;-142.02;100.00;61695.09;4962347;28;20714;-72
2022/01/24 06:41:34;;;;;;;49.28;24.20;;;;;;;-142.02;100.00;61695.09;4959130;28;20122;-71
2022/01/24 06:44:00;;;;;;;44.17;22.70;;;;;;;-142.02;100.00;61695.09;4944268;28;20052;-71
2022/01/24 06:46:26;;;;;;;69.53;31.65;;;;;;;-142.02;100.00;61695.09;4939872;28;20054;-70
2022/01/24 06:48:52;;;;;;;43.00;20.30;;;;;;;-142.02;100.00;61695.09;4937591;28;20043;-71
2022/01/24 06:51:19;;;;;;;52.78;24.92;;;;;;;-142.02;100.00;61695.09;4938701;28;20056;-71
2022/01/24 06:53:47;;;;;;;44.53;21.38;;;;;;;-142.02;100.00;61695.09;4935539;28;20138;-71
2022/01/24 06:56:14;;;;;;;42.10;21.13;;;;;;;-142.02;100.00;61695.09;4921416;28;20103;-70
2022/01/24 06:58:40;;;;;;;34.53;17.45;;;;;;;-142.02;100.00;61695.09;4909287;29;20122;-71
2022/01/24 07:01:06;;;;;;;43.83;20.00;;;;;;;-142.02;100.00;61695.09;4923361;28;20080;-71
2022/01/24 07:03:34;;;;;;;34.67;18.90;;;;;;;-142.02;100.00;61695.09;4942169;28;20059;-72
2022/01/24 07:06:02;;;;;;;26.83;16.00;;;;;;;-142.02;100.00;61695.09;4925741;28;20496;-70
2022/01/24 07:08:28;;;;;;;40.88;19.95;;;;;;;-142.02;100.00;61695.09;4924503;29;20051;-72
2022/01/24 07:10:56;;;;;;;34.42;16.55;;;;;;;-142.02;100.00;61695.09;4923626;28;20086;-69
2022/01/24 07:13:22;;;;;;;40.28;21.20;;;;;;;-142.02;100.00;61695.09;4941641;28;20054;-71
2022/01/24 07:15:56;;;;;;;30.17;17.08;;;;;;;-142.02;100.00;61695.09;4909640;28;21739;-71
2022/01/24 07:20:58;;;;;;;29.95;15.82;;;;;;;-7.25;90.90;101952.66;4948430;28;20545;-72
2022/01/24 07:23:24;;;;;;;39.08;20.58;;;;;;;-142.02;100.00;61695.09;4960578;28;20595;-72
2022/01/24 07:25:51;;;;;;;38.63;20.50;;;;;;;-142.02;100.00;61695.09;4941969;28;20046;-71
2022/01/24 07:28:16;;;;;;;40.90;20.35;;;;;;;-142.02;100.00;61695.09;4922835;28;20055;-71
2022/01/24 07:30:43;;;;;;;46.90;20.83;;;;;;;-142.02;100.00;61695.09;4940342;28;20057;-71
2022/01/24 07:33:11;;;;;;;46.10;21.60;;;;;;;-142.02;100.00;61695.09;4939842;28;20091;-71
2022/01/24 07:35:37;;;;;;;49.83;24.58;;;;;;;-142.02;100.00;61695.09;4924651;29;20126;-72
2022/01/24 07:38:06;;;;;;;33.72;17.17;;;;;;;-142.02;100.00;61695.09;4943943;28;20137;-70
2022/01/24 07:40:37;;;;;;;40.35;18.95;;;;;;;-142.02;100.00;61695.09;4943607;28;20048;-73
2022/01/24 07:43:12;;;;;;;42.20;21.77;;;;;;;-142.02;100.00;61695.09;4947527;28;20054;-71
2022/01/24 07:45:40;;;;;;;38.65;18.35;;;;;;;-142.02;100.00;61695.09;4946529;28;20111;-70
2022/01/24 07:48:07;;;;;;;39.85;20.58;;;;;;;-142.02;100.00;61695.09;4969492;28;20061;-72
2022/01/24 07:50:35;;;;;;;40.05;19.27;;;;;;;-142.02;100.00;61695.09;4945772;28;20078;-70
2022/01/24 07:53:03;;;;;;;25.77;14.15;;;;;;;-142.02;100.00;61695.09;4949161;28;20129;-71
2022/01/24 07:55:30;;;;;;;37.60;18.75;;;;;;;-142.02;100.00;61695.09;4962561;28;20545;-72
2022/01/24 07:58:07;;;;;;;60.20;25.45;;;;;;;-142.02;100.00;61695.09;4937954;28;20047;-71
2022/01/24 08:00:34;;;;;;;38.55;18.30;;;;;;;-142.02;100.00;61695.09;4959168;28;20059;-73
2022/01/24 08:03:00;;;;;;;37.83;16.83;;;;;;;-142.02;100.00;61695.09;4960999;28;20598;-72
2022/01/24 08:05:26;;;;;;;48.88;21.90;;;;;;;-142.02;100.00;61695.09;4943661;28;20051;-72
2022/01/24 08:07:53;;;;;;;50.35;21.65;;;;;;;-142.02;100.00;61695.09;4941077;28;20047;-71
2022/01/24 08:10:18;;;;;;;63.35;25.48;;;;;;;-142.02;100.00;61695.09;4965652;28;20447;-71
2022/01/24 08:12:45;;;;;;;46.33;20.35;;;;;;;-142.02;100.00;61695.09;4963476;28;20043;-71
2022/01/24 08:15:14;;;;;;;49.85;20.10;;;;;;;-142.02;100.00;61695.09;4968273;28;20035;-72
2022/01/24 08:17:43;;;;;;;45.47;18.98;;;;;;;-142.02;100.00;61695.09;4958509;28;20055;-72
2022/01/24 08:20:10;;;;;;;45.45;21.73;;;;;;;-142.02;100.00;61695.09;4974734;28;20422;-71
2022/01/24 08:22:36;;;;;;;39.47;17.42;;;;;;;-142.02;100.00;61695.09;4962411;28;20055;-71
2022/01/24 08:25:04;;;;;;;51.17;19.63;;;;;;;-142.02;100.00;61695.09;4960736;28;20131;-71
2022/01/24 08:27:31;;;;;;;57.00;23.30;;;;;;;-142.02;100.00;61695.09;4959881;28;20069;-71
2022/01/24 08:29:59;;;;;;;52.90;18.73;;;;;;;-142.02;100.00;61695.09;4961666;28;20065;-71
2022/01/24 08:32:26;;;;;;;52.95;20.35;;;;;;;-142.02;100.00;61695.09;4948084;28;20560;-71
2022/01/24 08:34:52;;;;;;;18.77;8.32;;;;;;;-142.02;100.00;61695.09;4956042;28;20456;-71
2022/01/24 08:37:18;;;;;;;42.50;18.42;;;;;;;-142.02;100.00;61695.09;4948336;28;20055;-73
2022/01/24 08:39:45;;;;;;;43.67;19.40;;;;;;;-142.02;100.00;61695.09;4956955;28;20066;-71
2022/01/24 08:42:20;;;;;;;54.58;21.42;;;;;;;-142.02;100.00;61695.09;4929656;28;20046;-72
2022/01/24 08:47:22;;;;;;;34.60;18.08;;;;;;;-142.02;100.00;61695.09;4968091;28;20078;-73
2022/01/24 08:49:49;;;;;;;46.47;20.05;;;;;;;-142.02;100.00;61695.09;4965960;28;20039;-74
2022/01/24 08:52:15;;;;;;;45.97;21.48;;;;;;;-142.02;100.00;61695.09;4949680;28;20864;-72
2022/01/24 08:54:41;;;;;;;40.40;20.63;;;;;;;-142.02;100.00;61695.09;4967810;28;20043;-71
2022/01/24 08:57:07;;;;;;;46.50;21.73;;;;;;;-142.02;100.00;61695.09;4966097;28;20598;-73
2022/01/24 08:59:33;;;;;;;40.15;19.15;;;;;;;-142.02;100.00;61695.09;4967659;28;20085;-72
2022/01/24 09:01:59;;;;;;;36.95;14.70;;;;;;;-142.02;100.00;61695.09;4969571;28;20047;-72
2022/01/24 09:04:26;;;;;;;46.38;21.20;;;;;;;-142.02;100.00;61695.09;4969355;28;20593;-72
2022/01/24 09:06:54;;;;;;;55.83;23.95;;;;;;;-142.02;100.00;61695.09;4958860;28;20047;-72
2022/01/24 09:09:20;;;;;;;41.55;16.83;;;;;;;-142.02;100.00;61695.09;4961187;28;20042;-73
2022/01/24 09:11:47;;;;;;;31.15;15.18;;;;;;;-142.02;100.00;61695.09;4940476;28;20082;-72
2022/01/24 09:14:13;;;;;;;61.53;23.63;;;;;;;-142.02;100.00;61695.09;4958907;28;20496;-73
2022/01/24 09:16:40;;;;;;;59.88;21.23;;;;;;;-142.02;100.00;61695.09;4963616;28;20062;-72
2022/01/24 09:19:07;;;;;;;50.65;20.85;;;;;;;-142.02;100.00;61695.09;4941797;28;20050;-72
2022/01/24 09:21:35;;;;;;;30.67;16.05;;;;;;;-142.02;100.00;61695.09;4947708;28;20191;-72
2022/01/24 09:24:02;;;;;;;9.75;6.63;;;;;;;-142.02;100.00;61695.09;4964628;28;20082;-72
2022/01/24 09:26:28;;;;;;;44.33;20.52;;;;;;;-142.02;100.00;61695.09;4944749;28;20078;-72
2022/01/24 09:28:54;;;;;;;38.90;20.75;;;;;;;-142.02;100.00;61695.09;4963188;28;20401;-73
2022/01/24 09:31:22;;;;;;;19.70;12.95;;;;;;;-142.02;100.00;61695.09;4941262;28;20062;-72
2022/01/24 09:33:49;;;;;;;36.63;18.27;;;;;;;-142.02;100.00;61695.09;4956841;28;20087;-71
2022/01/24 09:36:16;;;;;;;42.03;19.15;;;;;;;-142.02;100.00;61695.09;4965830;28;20055;-73
2022/01/24 09:38:43;;;;;;;36.58;18.45;;;;;;;-142.02;100.00;61695.09;4946681;28;20039;-71
2022/01/24 09:41:12;;;;;;;33.35;18.02;;;;;;;-142.02;100.00;61695.09;4964811;28;20086;-72
2022/01/24 09:43:39;;;;;;;51.30;24.52;;;;;;;-142.02;100.00;61695.09;4948304;28;20043;-72
2022/01/24 09:46:05;;;;;;;64.18;28.05;;;;;;;-142.02;100.00;61695.09;4935674;28;20138;-72
2022/01/24 09:48:31;;;;;;;76.75;30.60;;;;;;;-142.02;100.00;61695.09;4952919;28;20133;-72
2022/01/24 09:50:58;;;;;;;71.75;30.45;;;;;;;-142.02;100.00;61695.09;4957790;28;20058;-72
2022/01/24 09:53:27;;;;;;;83.15;33.28;;;;;;;-142.02;100.00;61695.09;4966912;28;20113;-73
2022/01/24 09:55:54;;;;;;;81.90;33.03;;;;;;;-142.02;100.00;61695.09;4948165;28;20137;-72
2022/01/24 09:58:20;;;;;;;86.82;34.88;;;;;;;-142.02;100.00;61695.09;4965968;28;20039;-72
2022/01/24 10:00:46;;;;;;;79.97;31.63;;;;;;;-142.02;100.00;61695.09;4956645;28;20078;-72
2022/01/24 10:03:13;;;;;;;78.30;33.65;;;;;;;-142.02;100.00;61695.09;4972314;28;20106;-72
2022/01/24 10:05:40;;;;;;;79.00;33.33;;;;;;;-142.02;100.00;61695.09;4928704;28;20051;-72
2022/01/24 10:08:07;;;;;;;66.50;25.13;;;;;;;-142.02;100.00;61695.09;4968426;28;20704;-72
2022/01/24 10:10:34;;;;;;;67.35;25.90;;;;;;;-142.02;100.00;61695.09;4958455;28;20077;-73
2022/01/24 10:16:26;;;;;;;71.07;28.25;;;;;;;-142.02;100.00;61695.09;4958775;28;20145;-72
2022/01/24 10:19:21;;;;;;;77.72;31.02;;;;;;;-142.02;100.00;61695.09;4958646;28;20088;-73
2022/01/24 10:21:50;;;;;;;64.63;27.20;;;;;;;-142.02;100.00;61695.09;4953396;28;20046;-71
2022/01/24 10:24:45;;;;;;;62.97;27.38;;;;;;;-142.02;100.00;61695.09;4938474;28;20051;-71
2022/01/24 10:27:16;;;;;;;66.57;26.65;;;;;;;-142.02;100.00;61695.09;4956428;28;20522;-72
2022/01/24 10:29:49;;;;;;;75.68;31.42;;;;;;;-142.02;100.00;61695.09;4957245;28;20061;-72
2022/01/24 10:32:32;;;;;;;71.55;32.15;;;;;;;-142.02;100.00;61695.09;4966258;28;20502;-72
2022/01/24 10:35:38;;;;;;;74.88;33.50;;;;;;;-142.02;100.00;61695.09;4958945;28;20047;-72
2022/01/24 10:43:33;;;;;;;73.65;29.95;;;;;;;-142.02;100.00;61695.09;4944673;28;20060;-72
2022/01/24 10:45:59;;;;;;;67.32;31.60;;;;;;;-142.02;100.00;61695.09;4961438;28;20052;-71
2022/01/24 10:48:33;;;;;;;75.22;31.95;;;;;;;-142.02;100.00;61695.09;4965419;28;20048;-71
2022/01/24 10:51:21;;;;;;;83.00;35.65;;;;;;;-142.02;100.00;61695.09;4946276;28;20054;-73
2022/01/24 10:53:52;;;;;;;81.32;33.55;;;;;;;-142.02;100.00;61695.09;4961921;28;20051;-72
2022/01/24 10:56:40;;;;;;;71.75;31.00;;;;;;;-142.02;100.00;61695.09;4964179;28;20059;-71
2022/01/24 17:10:36;;;;;;;63.30;26.52;;;;;;;-6.94;91.62;101636.16;4982077;28;20197;-72
2022/01/24 17:13:05;;;;;;;65.50;24.60;;;;;;;-142.02;100.00;61695.09;4980922;28;20046;-72
2022/01/24 17:15:33;;;;;;;70.60;29.77;;;;;;;-142.02;100.00;61695.09;4985432;28;20062;-73
2022/01/24 17:17:59;;;;;;;56.20;23.58;;;;;;;-142.02;100.00;61695.09;4983898;28;20067;-72
2022/01/24 17:20:26;;;;;;;69.93;29.42;;;;;;;-142.02;100.00;61695.09;4982642;28;20050;-73
2022/01/24 17:22:52;;;;;;;42.00;19.60;;;;;;;-142.02;100.00;61695.09;4995680;28;20052;-72
2022/01/24 17:25:19;;;;;;;44.33;18.98;;;;;;;-142.02;100.00;61695.09;4984216;28;20476;-72
2022/01/24 17:27:46;;;;;;;56.60;25.55;;;;;;;-142.02;100.00;61695.09;5009482;28;20053;-73
2022/01/24 17:30:13;;;;;;;71.00;29.48;;;;;;;-142.02;100.00;61695.09;4998829;28;20046;-73
2022/01/24 17:32:41;;;;;;;72.85;31.05;;;;;;;-142.02;100.00;61695.09;4983373;28;20477;-72
2022/01/24 17:35:08;;;;;;;85.72;35.78;;;;;;;-142.02;100.00;61695.09;4979785;28;20051;-73
2022/01/24 17:37:34;;;;;;;49.88;20.58;;;;;;;-6.94;91.62;101636.16;4979430;28;20061;-75
2022/01/24 17:40:02;;;;;;;72.95;31.98;;;;;;;-6.99;90.57;101617.31;5006107;28;20129;-73
2022/01/24 17:42:32;;;;;;;66.47;28.90;;;;;;;-7.01;90.92;101618.94;5002109;28;20101;-72
2022/01/24 17:45:05;;;;;;;65.20;29.00;;;;;;;-6.99;90.68;101612.22;5004397;28;20106;-72
2022/01/24 17:47:32;;;;;;;34.13;17.58;;;;;;;-7.08;91.06;101616.91;4985172;28;20046;-70
2022/01/24 17:49:58;;;;;;;68.45;34.80;;;;;;;-142.02;100.00;61695.09;4981198;28;20061;-72
2022/01/24 17:52:24;;;;;;;55.13;25.70;;;;;;;-7.08;91.06;101616.91;4998532;28;20050;-71
2022/01/24 17:54:50;;;;;;;55.70;28.05;;;;;;;-142.02;100.00;61695.09;4981799;28;20514;-72
2022/01/24 17:57:16;;;;;;;45.90;20.52;;;;;;;-142.02;100.00;61695.09;4979598;28;20656;-72
2022/01/24 17:59:42;;;;;;;29.67;13.10;;;;;;;-142.02;100.00;61695.09;4995727;28;20518;-71
2022/01/24 18:02:08;;;;;;;39.42;18.25;;;;;;;-142.02;100.00;61695.09;4995622;28;20069;-71
2022/01/24 18:04:34;;;;;;;56.95;26.38;;;;;;;-142.02;100.00;61695.09;4997716;28;20253;-72
2022/01/24 18:07:02;;;;;;;48.80;22.85;;;;;;;-7.25;90.74;101611.09;4997041;28;20188;-71
2022/01/24 18:09:30;;;;;;;41.72;20.40;;;;;;;-7.30;90.94;101614.22;4999294;28;20058;-71
2022/01/24 18:11:57;;;;;;;35.75;16.63;;;;;;;-7.36;90.77;101606.34;5001409;28;20041;-70
2022/01/24 18:14:23;;;;;;;35.33;17.13;;;;;;;-142.02;100.00;61695.09;4995199;28;20058;-71
2022/01/24 18:16:49;;;;;;;34.53;17.15;;;;;;;-7.30;91.32;101597.34;4996788;28;20085;-72
2022/01/24 18:19:15;;;;;;;25.52;14.20;;;;;;;-7.29;90.91;101605.78;4996847;28;20114;-72
2022/01/24 18:21:45;;;;;;;31.23;15.88;;;;;;;-7.29;90.48;101600.72;4998115;28;20049;-71
2022/01/24 18:24:13;;;;;;;20.70;12.68;;;;;;;-7.42;90.75;101589.16;5002310;28;20105;-71
2022/01/24 18:26:39;;;;;;;21.38;12.73;;;;;;;-7.45;91.36;101581.44;4975984;28;20544;-71
2022/01/24 18:29:08;;;;;;;46.45;19.83;;;;;;;-7.44;91.51;101575.56;5004145;28;20047;-70
2022/01/24 18:31:38;;;;;;;32.63;16.70;;;;;;;-7.46;91.19;101575.47;4989270;28;20521;-70
2022/01/24 18:34:03;;;;;;;47.00;21.88;;;;;;;-7.45;91.48;101574.69;4974186;28;20062;-71
2022/01/24 18:36:30;;;;;;;14.73;8.93;;;;;;;-7.47;91.09;101583.91;4981995;28;20141;-71
2022/01/24 18:38:56;;;;;;;21.15;11.40;;;;;;;-7.59;91.36;101575.72;4997778;28;20096;-71
2022/01/24 18:41:22;;;;;;;20.67;14.63;;;;;;;-7.55;91.49;101577.59;4978280;28;20149;-70
2022/01/24 18:43:48;;;;;;;56.55;24.33;;;;;;;-7.48;91.73;101576.22;4963242;28;20126;-71
2022/01/24 18:46:14;;;;;;;38.40;20.15;;;;;;;-7.42;91.53;101573.94;4994524;28;20046;-71
2022/01/24 18:48:40;;;;;;;30.95;16.50;;;;;;;-7.49;90.72;101567.75;4989717;28;20045;-71
2022/01/24 18:51:08;;;;;;;42.67;19.45;;;;;;;-7.54;90.82;101556.53;5007533;28;20103;-71
2022/01/24 18:53:35;;;;;;;13.20;9.27;;;;;;;-7.56;90.59;101555.59;5014186;28;20052;-71
2022/01/24 18:56:01;;;;;;;40.33;18.73;;;;;;;-7.54;90.57;101559.06;4996602;28;20084;-71
2022/01/24 18:58:28;;;;;;;41.22;19.80;;;;;;;-7.46;91.24;101560.25;5013493;28;20045;-71
2022/01/24 19:00:54;;;;;;;20.45;12.75;;;;;;;-7.40;90.66;101552.09;5015068;28;20188;-71
2022/01/24 19:03:23;;;;;;;50.95;23.20;;;;;;;-7.42;91.17;101553.66;5000657;28;20149;-71
2022/01/24 19:05:49;;;;;;;49.72;23.15;;;;;;;-7.43;90.97;101552.78;4991842;28;20038;-72